Time,TemperatureF,DewpointF,PressureIn,WindDirection,WindDirectionDegrees,WindSpeedMPH,WindSpeedGustMPH,Humidity,HourlyPrecipIn,Conditions,Clouds,dailyrainin,SolarRadiationWatts/m^2,UVIndex,SoftwareType,DateUTC
2026-09-04 00:04:57,79.1,73.1,30.03,South,174,1.2,2.3,82,0.00,,,0.00,0,0,n/a,2026-09-04T04:04:57Z
2026-09-04 00:09:58,79.2,73.2,30.03,SSE,164,0.8,2.3,82,0.00,,,0.00,0,0,n/a,2026-09-04T04:09:58Z
2026-09-04 00:14:56,79.1,73.1,30.03,SE,143,0.5,1.2,82,0.00,,,0.00,0,0,n/a,2026-09-04T04:14:56Z
2026-09-04 00:19:56,79.1,73.3,30.03,South,173,0.3,2.3,82.7,0.00,,,0.00,0,0,n/a,2026-09-04T04:19:56Z
2026-09-04 00:24:59,78.9,72.9,30.03,SSW,195,0.5,2.3,82.1,0.00,,,0.00,0,0,n/a,2026-09-04T04:24:59Z
2026-09-04 00:29:58,78.7,72.8,30.03,SSE,161,0.6,2.3,82.1,0.00,,,0.00,0,0,n/a,2026-09-04T04:29:58Z
2026-09-04 00:34:58,78.6,73.2,30.03,SE,127,0.5,1.2,83.6,0.00,,,0.00,0,0,n/a,2026-09-04T04:34:58Z
2026-09-04 00:39:57,78.4,73.2,30.03,ESE,102,0.6,1.2,84,0.00,,,0.00,0,0,n/a,2026-09-04T04:39:57Z
2026-09-04 00:44:56,78.1,73,30.04,SSE,154,0.4,1.2,84.1,0.00,,,0.00,0,0,n/a,2026-09-04T04:44:56Z
2026-09-04 00:49:58,77.8,72.9,30.04,ESE,106,0.3,2.3,85,0.00,,,0.00,0,0,n/a,2026-09-04T04:49:58Z
2026-09-04 00:54:58,77.6,72.7,30.04,ESE,105,0,2.3,85.1,0.00,,,0.00,0,0,n/a,2026-09-04T04:54:58Z
2026-09-04 00:59:56,77.4,72.9,30.04,ESE,105,0,0,86,0.00,,,0.00,0,0,n/a,2026-09-04T04:59:56Z
2026-09-04 01:04:58,77.2,72.7,30.04,ESE,118,0,2.3,86,0.00,,,0.00,0,0,n/a,2026-09-04T05:04:58Z
2026-09-04 01:09:58,77,72.5,30.04,SSW,204,0,1.2,86,0.00,,,0.00,0,0,n/a,2026-09-04T05:09:58Z
2026-09-04 01:14:59,76.8,72.3,30.04,SSW,204,0.2,2.3,86,0.00,,,0.00,0,0,n/a,2026-09-04T05:14:59Z
2026-09-04 01:19:59,76.7,72.3,30.04,SW,228,0.2,2.3,86.3,0.00,,,0.00,0,0,n/a,2026-09-04T05:19:59Z
2026-09-04 01:24:56,76.6,72.4,30.04,SW,227,0.1,1.2,87,0.00,,,0.00,0,0,n/a,2026-09-04T05:24:56Z
2026-09-04 01:29:59,76.5,72.3,30.04,SW,229,0,0,87,0.00,,,0.00,0,0,n/a,2026-09-04T05:29:59Z
2026-09-04 01:34:58,76.4,72.4,30.04,SW,229,0,0,87.6,0.00,,,0.00,0,0,n/a,2026-09-04T05:34:58Z
2026-09-04 01:39:59,76.3,72.5,30.04,SW,229,0,0,88,0.00,,,0.00,0,0,n/a,2026-09-04T05:39:59Z
2026-09-04 01:44:58,76.1,72.3,30.04,SW,229,0,1.2,88,0.00,,,0.00,0,0,n/a,2026-09-04T05:44:58Z
2026-09-04 01:49:59,76,72.2,30.03,SW,229,0.1,2.3,88,0.00,,,0.00,0,0,n/a,2026-09-04T05:49:59Z
2026-09-04 01:54:59,75.8,72,30.03,SW,229,0,0,88,0.00,,,0.00,0,0,n/a,2026-09-04T05:54:59Z
2026-09-04 01:59:59,75.7,72,30.03,SW,229,0,1.2,88.3,0.00,,,0.00,0,0,n/a,2026-09-04T05:59:59Z
2026-09-04 02:04:56,75.6,72.1,30.03,SW,229,0,1.2,89,0.00,,,0.00,0,0,n/a,2026-09-04T06:04:56Z
2026-09-04 02:09:57,75.5,71.9,30.03,SW,229,0,0,88.7,0.00,,,0.00,0,0,n/a,2026-09-04T06:09:57Z
2026-09-04 02:14:57,75.3,71.8,30.03,SW,229,0,1.2,89,0.00,,,0.00,0,0,n/a,2026-09-04T06:14:57Z
2026-09-04 02:19:59,75.2,72,30.02,SW,229,0,1.2,89.7,0.00,,,0.00,0,0,n/a,2026-09-04T06:19:59Z
2026-09-04 02:24:57,75.1,72,30.02,SW,229,0,0,90,0.00,,,0.00,0,0,n/a,2026-09-04T06:24:57Z
2026-09-04 02:29:57,75,71.9,30.02,SW,229,0,0,89.8,0.00,,,0.00,0,0,n/a,2026-09-04T06:29:57Z
2026-09-04 02:34:58,75,71.8,30.01,SW,229,0,0,89.8,0.00,,,0.00,0,0,n/a,2026-09-04T06:34:58Z
2026-09-04 02:39:58,74.9,71.8,30.01,SW,229,0,0,90.1,0.00,,,0.00,0,0,n/a,2026-09-04T06:39:58Z
2026-09-04 02:44:59,74.8,72,30.01,SW,229,0.1,2.3,91,0.00,,,0.00,0,0,n/a,2026-09-04T06:44:59Z
2026-09-04 02:49:59,74.8,72,30.01,SW,229,0.1,2.3,91,0.00,,,0.00,0,0,n/a,2026-09-04T06:49:59Z
2026-09-04 02:54:58,74.7,71.7,30.01,SW,229,0,2.3,90.3,0.00,,,0.00,0,0,n/a,2026-09-04T06:54:58Z
2026-09-04 02:59:57,74.7,71.9,30.01,SW,229,0.1,2.3,91,0.00,,,0.00,0,0,n/a,2026-09-04T06:59:57Z
2026-09-04 03:04:57,74.7,71.9,30.01,SW,229,0,2.3,91,0.00,,,0.00,0,0,n/a,2026-09-04T07:04:57Z
2026-09-04 03:09:58,74.7,71.9,30.01,SW,229,0,1.2,91,0.00,,,0.00,0,0,n/a,2026-09-04T07:09:58Z
2026-09-04 03:14:58,74.6,71.8,30.01,SW,236,0.1,2.3,91,0.00,,,0.00,0,0,n/a,2026-09-04T07:14:58Z
2026-09-04 03:19:56,74.6,72,30.00,SW,236,0.3,2.3,91.7,0.00,,,0.00,0,0,n/a,2026-09-04T07:19:56Z
2026-09-04 03:24:59,74.6,71.8,30.00,SW,236,0,1.2,91,0.00,,,0.00,0,0,n/a,2026-09-04T07:24:59Z
2026-09-04 03:29:57,74.6,72,30.00,SW,236,0,2.3,91.9,0.00,,,0.00,0,0,n/a,2026-09-04T07:29:57Z
2026-09-04 03:34:57,74.5,71.9,30.00,SW,236,0.1,2.3,91.5,0.00,,,0.00,0,0,n/a,2026-09-04T07:34:57Z
2026-09-04 03:39:58,74.5,71.9,30.00,SW,236,0.3,2.3,91.6,0.00,,,0.00,0,0,n/a,2026-09-04T07:39:58Z
2026-09-04 03:44:56,74.4,71.9,30.00,SW,219,0.7,2.3,92,0.00,,,0.00,0,0,n/a,2026-09-04T07:44:56Z
2026-09-04 03:49:56,74.5,72,30.00,SSW,209,0.7,1.2,92,0.00,,,0.00,0,0,n/a,2026-09-04T07:49:56Z
2026-09-04 03:54:56,74.5,72,30.00,SSW,208,0.9,1.2,92,0.00,,,0.00,0,0,n/a,2026-09-04T07:54:56Z
2026-09-04 03:59:56,74.5,72,30.00,SW,216,0.7,1.2,92,0.00,,,0.00,0,0,n/a,2026-09-04T07:59:56Z
2026-09-04 04:04:57,74.6,72.1,30.00,SW,216,0.1,1.2,92,0.00,,,0.00,0,0,n/a,2026-09-04T08:04:57Z
2026-09-04 04:09:58,74.5,72,30.00,SW,216,0.1,2.3,92,0.00,,,0.00,0,0,n/a,2026-09-04T08:09:58Z
2026-09-04 04:14:58,74.5,72,30.00,SW,216,0,0,92,0.00,,,0.00,0,0,n/a,2026-09-04T08:14:58Z
2026-09-04 04:19:59,74.5,72,30.00,West,273,0,1.2,92,0.00,,,0.00,0,0,n/a,2026-09-04T08:19:59Z
2026-09-04 04:24:57,74.4,71.9,30.00,SW,234,0.5,2.3,92,0.00,,,0.00,0,0,n/a,2026-09-04T08:24:57Z
2026-09-04 04:29:58,74.4,71.9,30.00,SW,234,0.1,2.3,92,0.00,,,0.00,0,0,n/a,2026-09-04T08:29:58Z
2026-09-04 04:34:56,74.3,71.8,30.00,SW,234,0,0,92,0.00,,,0.00,0,0,n/a,2026-09-04T08:34:56Z
2026-09-04 04:39:56,74.3,71.8,30.00,SW,234,0,0,92,0.00,,,0.00,0,0,n/a,2026-09-04T08:39:56Z
2026-09-04 04:44:58,74.2,71.7,30.01,SW,234,0,0,92,0.00,,,0.00,0,0,n/a,2026-09-04T08:44:58Z
2026-09-04 04:49:56,74.1,71.6,30.01,SW,234,0,0,92,0.00,,,0.00,0,0,n/a,2026-09-04T08:49:56Z
2026-09-04 04:54:57,74,71.5,30.01,SW,234,0.2,1.2,92,0.00,,,0.00,0,0,n/a,2026-09-04T08:54:57Z
2026-09-04 04:59:58,73.9,71.4,30.01,SW,234,0,2.3,92,0.00,,,0.00,0,0,n/a,2026-09-04T08:59:58Z
2026-09-04 05:04:57,73.7,71.2,30.01,SW,234,0.1,1.2,92,0.00,,,0.00,0,0,n/a,2026-09-04T09:04:57Z
2026-09-04 05:09:58,73.7,71.4,30.01,SW,234,0.2,2.3,92.5,0.00,,,0.00,0,0,n/a,2026-09-04T09:09:58Z
2026-09-04 05:14:58,73.7,71.4,30.01,SW,234,0,2.3,92.6,0.00,,,0.00,0,0,n/a,2026-09-04T09:14:58Z
2026-09-04 05:19:57,73.6,71.1,30.01,SW,234,0,0,92.2,0.00,,,0.00,0,0,n/a,2026-09-04T09:19:57Z
2026-09-04 05:24:57,73.5,71.3,30.01,SW,234,0,0,92.7,0.00,,,0.00,0,0,n/a,2026-09-04T09:24:57Z
2026-09-04 05:29:58,73.5,71.1,30.01,SW,234,0.1,2.3,92.2,0.00,,,0.00,0,0,n/a,2026-09-04T09:29:58Z
2026-09-04 05:34:57,73.4,71.1,30.01,SW,234,0,0,92.4,0.00,,,0.00,0,0,n/a,2026-09-04T09:34:57Z
2026-09-04 05:39:56,73.4,70.9,30.01,SW,234,0,0,92,0.00,,,0.00,0,0,n/a,2026-09-04T09:39:56Z
2026-09-04 05:44:57,73.3,70.9,30.01,SW,234,0,0,92.2,0.00,,,0.00,0,0,n/a,2026-09-04T09:44:57Z
2026-09-04 05:49:56,73.3,71.2,30.01,SW,234,0.1,2.3,93,0.00,,,0.00,0,0,n/a,2026-09-04T09:49:56Z
2026-09-04 05:54:58,73.3,71,30.01,SW,234,0,0,92.5,0.00,,,0.00,0,0,n/a,2026-09-04T09:54:58Z
2026-09-04 05:59:57,73.2,71.1,30.01,SW,234,0,0,93,0.00,,,0.00,0,0,n/a,2026-09-04T09:59:57Z
2026-09-04 06:04:59,73.2,71.1,30.01,SW,234,0,0,93,0.00,,,0.00,0,0,n/a,2026-09-04T10:04:59Z
2026-09-04 06:09:57,73.2,71.1,30.01,SW,234,0,0,93,0.00,,,0.00,0,0,n/a,2026-09-04T10:09:57Z
2026-09-04 06:14:56,73.1,71,30.02,SW,234,0,0,93,0.00,,,0.00,0,0,n/a,2026-09-04T10:14:56Z
2026-09-04 06:19:58,73.2,71.1,30.02,SW,234,0,0,93,0.00,,,0.00,0,0,n/a,2026-09-04T10:19:58Z
2026-09-04 06:24:58,73.2,71.1,30.02,SW,234,0,0,93,0.00,,,0.00,0,0,n/a,2026-09-04T10:24:58Z
2026-09-04 06:29:57,73.1,71,30.02,SW,234,0,0,93,0.00,,,0.00,0,0,n/a,2026-09-04T10:29:57Z
2026-09-04 06:34:58,73.1,71,30.02,SW,234,0,0,93,0.00,,,0.00,0,0,n/a,2026-09-04T10:34:58Z
2026-09-04 06:39:57,73,70.9,30.02,SW,234,0,0,93,0.00,,,0.00,0,0,n/a,2026-09-04T10:39:57Z